sensor_id;sensor_type;location;lat;lon;timestamp;temperature;humidity
70867;HTU21D;58487;53.474;49.470;2024-03-17T00:01:10;-2.00;64.81
70867;HTU21D;58487;53.474;49.470;2024-03-17T00:03:37;-2.02;65.61
70867;HTU21D;58487;53.474;49.470;2024-03-17T00:06:03;-2.13;65.12
70867;HTU21D;58487;53.474;49.470;2024-03-17T00:08:30;-2.08;66.02
70867;HTU21D;58487;53.474;49.470;2024-03-17T00:10:56;-2.18;67.91
70867;HTU21D;58487;53.474;49.470;2024-03-17T00:13:23;-2.09;66.88
70867;HTU21D;58487;53.474;49.470;2024-03-17T00:15:50;-2.18;66.84
70867;HTU21D;58487;53.474;49.470;2024-03-17T00:18:17;-2.19;70.35
70867;HTU21D;58487;53.474;49.470;2024-03-17T00:20:43;-2.24;69.57
70867;HTU21D;58487;53.474;49.470;2024-03-17T00:23:10;-2.31;68.78
70867;HTU21D;58487;53.474;49.470;2024-03-17T00:25:38;-2.34;69.58
70867;HTU21D;58487;53.474;49.470;2024-03-17T00:28:04;-2.34;66.77
70867;HTU21D;58487;53.474;49.470;2024-03-17T00:30:30;-2.42;63.89
70867;HTU21D;58487;53.474;49.470;2024-03-17T00:32:57;-2.42;75.50
70867;HTU21D;58487;53.474;49.470;2024-03-17T00:35:26;-2.45;67.14
70867;HTU21D;58487;53.474;49.470;2024-03-17T00:37:53;-2.45;71.09
70867;HTU21D;58487;53.474;49.470;2024-03-17T00:40:22;-2.37;67.85
70867;HTU21D;58487;53.474;49.470;2024-03-17T00:42:48;-2.36;67.26
70867;HTU21D;58487;53.474;49.470;2024-03-17T00:45:15;-2.38;68.13
70867;HTU21D;58487;53.474;49.470;2024-03-17T00:47:41;-2.52;63.99
70867;HTU21D;58487;53.474;49.470;2024-03-17T00:50:08;-2.54;70.78
70867;HTU21D;58487;53.474;49.470;2024-03-17T00:52:37;-2.51;72.12
70867;HTU21D;58487;53.474;49.470;2024-03-17T00:55:03;-2.53;68.67
70867;HTU21D;58487;53.474;49.470;2024-03-17T00:57:32;-2.58;70.52
70867;HTU21D;58487;53.474;49.470;2024-03-17T00:59:58;-2.64;69.73
70867;HTU21D;58487;53.474;49.470;2024-03-17T01:02:25;-2.61;68.27
70867;HTU21D;58487;53.474;49.470;2024-03-17T01:04:51;-2.44;68.50
70867;HTU21D;58487;53.474;49.470;2024-03-17T01:07:17;-2.47;64.82
70867;HTU21D;58487;53.474;49.470;2024-03-17T01:09:43;-2.64;66.32
70867;HTU21D;58487;53.474;49.470;2024-03-17T01:12:09;-2.67;65.34
70867;HTU21D;58487;53.474;49.470;2024-03-17T01:14:35;-2.74;68.70
70867;HTU21D;58487;53.474;49.470;2024-03-17T01:17:02;-2.73;63.35
70867;HTU21D;58487;53.474;49.470;2024-03-17T01:19:31;-2.78;69.16
70867;HTU21D;58487;53.474;49.470;2024-03-17T01:21:59;-2.83;78.75
70867;HTU21D;58487;53.474;49.470;2024-03-17T01:24:26;-2.82;68.39
70867;HTU21D;58487;53.474;49.470;2024-03-17T01:27:00;-2.86;72.41
70867;HTU21D;58487;53.474;49.470;2024-03-17T01:29:27;-2.91;88.42
70867;HTU21D;58487;53.474;49.470;2024-03-17T01:31:53;-2.93;76.47
70867;HTU21D;58487;53.474;49.470;2024-03-17T01:34:19;-3.06;96.61
70867;HTU21D;58487;53.474;49.470;2024-03-17T01:36:46;-3.01;68.00
70867;HTU21D;58487;53.474;49.470;2024-03-17T01:39:12;-3.06;75.41
70867;HTU21D;58487;53.474;49.470;2024-03-17T01:41:39;-3.16;73.36
70867;HTU21D;58487;53.474;49.470;2024-03-17T01:44:05;-3.16;69.65
70867;HTU21D;58487;53.474;49.470;2024-03-17T01:46:32;-3.21;72.44
70867;HTU21D;58487;53.474;49.470;2024-03-17T01:48:59;-3.21;72.50
70867;HTU21D;58487;53.474;49.470;2024-03-17T01:51:25;-3.16;70.52
70867;HTU21D;58487;53.474;49.470;2024-03-17T01:53:51;-3.08;67.66
70867;HTU21D;58487;53.474;49.470;2024-03-17T01:56:18;-3.19;81.91
70867;HTU21D;58487;53.474;49.470;2024-03-17T01:58:45;-3.23;76.81
70867;HTU21D;58487;53.474;49.470;2024-03-17T02:01:12;-3.28;79.18
70867;HTU21D;58487;53.474;49.470;2024-03-17T02:03:41;-3.15;72.71
70867;HTU21D;58487;53.474;49.470;2024-03-17T02:06:08;-3.09;72.42
70867;HTU21D;58487;53.474;49.470;2024-03-17T02:08:50;-3.07;71.42
70867;HTU21D;58487;53.474;49.470;2024-03-17T02:11:28;-3.06;67.49
70867;HTU21D;58487;53.474;49.470;2024-03-17T02:13:55;-3.12;72.27
70867;HTU21D;58487;53.474;49.470;2024-03-17T02:16:23;-3.08;70.49
70867;HTU21D;58487;53.474;49.470;2024-03-17T02:18:53;-3.08;72.65
70867;HTU21D;58487;53.474;49.470;2024-03-17T02:21:20;-3.06;69.45
70867;HTU21D;58487;53.474;49.470;2024-03-17T02:23:48;-3.07;76.96
70867;HTU21D;58487;53.474;49.470;2024-03-17T02:26:15;-3.16;67.56
70867;HTU21D;58487;53.474;49.470;2024-03-17T02:28:42;-3.21;81.24
70867;HTU21D;58487;53.474;49.470;2024-03-17T02:31:09;-3.13;69.47
70867;HTU21D;58487;53.474;49.470;2024-03-17T02:33:36;-3.09;71.61
70867;HTU21D;58487;53.474;49.470;2024-03-17T02:36:03;-2.97;72.97
70867;HTU21D;58487;53.474;49.470;2024-03-17T02:38:30;-2.94;72.77
70867;HTU21D;58487;53.474;49.470;2024-03-17T02:41:15;-2.91;71.45
70867;HTU21D;58487;53.474;49.470;2024-03-17T02:43:42;-2.82;67.97
70867;HTU21D;58487;53.474;49.470;2024-03-17T02:46:13;-2.82;72.77
70867;HTU21D;58487;53.474;49.470;2024-03-17T02:48:41;-2.88;68.46
70867;HTU21D;58487;53.474;49.470;2024-03-17T02:51:18;-3.01;69.41
70867;HTU21D;58487;53.474;49.470;2024-03-17T02:53:46;-3.10;75.15
70867;HTU21D;58487;53.474;49.470;2024-03-17T02:56:13;-3.19;71.02
70867;HTU21D;58487;53.474;49.470;2024-03-17T02:58:44;-3.28;78.76
70867;HTU21D;58487;53.474;49.470;2024-03-17T03:01:10;-3.28;71.68
70867;HTU21D;58487;53.474;49.470;2024-03-17T03:03:36;-3.33;67.54
70867;HTU21D;58487;53.474;49.470;2024-03-17T03:06:03;-3.13;66.12
70867;HTU21D;58487;53.474;49.470;2024-03-17T03:08:35;-3.05;64.26
70867;HTU21D;58487;53.474;49.470;2024-03-17T03:11:09;-2.88;65.61
70867;HTU21D;58487;53.474;49.470;2024-03-17T03:13:38;-2.72;66.17
70867;HTU21D;58487;53.474;49.470;2024-03-17T03:16:06;-2.59;66.82
70867;HTU21D;58487;53.474;49.470;2024-03-17T03:18:37;-2.45;72.23
70867;HTU21D;58487;53.474;49.470;2024-03-17T03:21:05;-2.46;71.81
70867;HTU21D;58487;53.474;49.470;2024-03-17T03:23:31;-2.37;69.46
70867;HTU21D;58487;53.474;49.470;2024-03-17T03:25:59;-2.42;67.01
70867;HTU21D;58487;53.474;49.470;2024-03-17T03:28:26;-2.36;69.13
70867;HTU21D;58487;53.474;49.470;2024-03-17T03:30:52;-2.29;62.82
70867;HTU21D;58487;53.474;49.470;2024-03-17T03:33:19;-2.22;73.77
70867;HTU21D;58487;53.474;49.470;2024-03-17T03:35:46;-2.30;68.57
70867;HTU21D;58487;53.474;49.470;2024-03-17T03:38:13;-2.31;70.12
70867;HTU21D;58487;53.474;49.470;2024-03-17T03:40:44;-2.26;69.70
70867;HTU21D;58487;53.474;49.470;2024-03-17T03:43:10;-2.24;69.90
70867;HTU21D;58487;53.474;49.470;2024-03-17T03:45:37;-2.23;74.19
70867;HTU21D;58487;53.474;49.470;2024-03-17T03:48:04;-2.19;73.22
70867;HTU21D;58487;53.474;49.470;2024-03-17T03:50:30;-2.27;70.80
70867;HTU21D;58487;53.474;49.470;2024-03-17T03:52:57;-2.49;72.52
70867;HTU21D;58487;53.474;49.470;2024-03-17T03:55:23;-2.48;71.71
70867;HTU21D;58487;53.474;49.470;2024-03-17T03:57:50;-2.37;75.96
70867;HTU21D;58487;53.474;49.470;2024-03-17T04:00:19;-2.45;74.03
70867;HTU21D;58487;53.474;49.470;2024-03-17T04:02:49;-2.39;79.60
70867;HTU21D;58487;53.474;49.470;2024-03-17T04:05:19;-2.33;80.68
70867;HTU21D;58487;53.474;49.470;2024-03-17T04:07:46;-2.19;71.65
70867;HTU21D;58487;53.474;49.470;2024-03-17T04:10:14;-2.23;72.60
70867;HTU21D;58487;53.474;49.470;2024-03-17T04:12:41;-2.15;74.20
70867;HTU21D;58487;53.474;49.470;2024-03-17T04:15:07;-2.16;71.70
70867;HTU21D;58487;53.474;49.470;2024-03-17T04:17:37;-2.14;77.98
70867;HTU21D;58487;53.474;49.470;2024-03-17T04:20:04;-2.09;73.65
70867;HTU21D;58487;53.474;49.470;2024-03-17T04:22:34;-2.21;74.96
70867;HTU21D;58487;53.474;49.470;2024-03-17T04:25:00;-2.26;74.40
70867;HTU21D;58487;53.474;49.470;2024-03-17T04:27:26;-2.27;70.45
70867;HTU21D;58487;53.474;49.470;2024-03-17T04:30:06;-2.19;67.65
70867;HTU21D;58487;53.474;49.470;2024-03-17T04:32:33;-2.16;69.80
70867;HTU21D;58487;53.474;49.470;2024-03-17T04:34:59;-2.26;73.74
70867;HTU21D;58487;53.474;49.470;2024-03-17T04:37:25;-2.15;72.10
70867;HTU21D;58487;53.474;49.470;2024-03-17T04:39:55;-2.05;67.74
70867;HTU21D;58487;53.474;49.470;2024-03-17T04:42:26;-2.13;70.81
70867;HTU21D;58487;53.474;49.470;2024-03-17T04:44:52;-2.05;69.10
70867;HTU21D;58487;53.474;49.470;2024-03-17T04:47:19;-2.04;63.79
70867;HTU21D;58487;53.474;49.470;2024-03-17T04:49:45;-1.82;66.65
70867;HTU21D;58487;53.474;49.470;2024-03-17T04:52:12;-1.82;67.84
70867;HTU21D;58487;53.474;49.470;2024-03-17T04:54:41;-1.80;64.70
70867;HTU21D;58487;53.474;49.470;2024-03-17T04:57:12;-1.78;65.65
70867;HTU21D;58487;53.474;49.470;2024-03-17T04:59:41;-1.73;67.14
70867;HTU21D;58487;53.474;49.470;2024-03-17T05:02:11;-1.75;69.25
70867;HTU21D;58487;53.474;49.470;2024-03-17T05:04:37;-1.68;67.98
70867;HTU21D;58487;53.474;49.470;2024-03-17T05:10:46;-1.53;68.77
70867;HTU21D;58487;53.474;49.470;2024-03-17T05:13:17;-1.52;71.45
70867;HTU21D;58487;53.474;49.470;2024-03-17T05:15:47;-1.34;65.22
70867;HTU21D;58487;53.474;49.470;2024-03-17T05:18:13;-1.20;66.42
70867;HTU21D;58487;53.474;49.470;2024-03-17T05:21:03;-1.26;64.93
70867;HTU21D;58487;53.474;49.470;2024-03-17T05:23:30;-1.47;65.04
70867;HTU21D;58487;53.474;49.470;2024-03-17T05:25:57;-1.27;64.22
70867;HTU21D;58487;53.474;49.470;2024-03-17T05:28:34;-1.00;68.30
70867;HTU21D;58487;53.474;49.470;2024-03-17T05:31:12;-0.97;73.09
70867;HTU21D;58487;53.474;49.470;2024-03-17T05:33:41;-0.93;71.97
70867;HTU21D;58487;53.474;49.470;2024-03-17T05:36:17;-1.06;75.75
70867;HTU21D;58487;53.474;49.470;2024-03-17T05:38:46;-0.77;71.39
70867;HTU21D;58487;53.474;49.470;2024-03-17T05:41:24;-0.64;67.49
70867;HTU21D;58487;53.474;49.470;2024-03-17T05:43:54;-0.50;65.59
70867;HTU21D;58487;53.474;49.470;2024-03-17T05:46:24;-0.58;65.40
70867;HTU21D;58487;53.474;49.470;2024-03-17T05:48:54;-0.49;71.03
70867;HTU21D;58487;53.474;49.470;2024-03-17T05:51:21;-0.34;70.51
70867;HTU21D;58487;53.474;49.470;2024-03-17T05:53:49;-0.07;73.40
70867;HTU21D;58487;53.474;49.470;2024-03-17T05:56:16;0.07;71.07
70867;HTU21D;58487;53.474;49.470;2024-03-17T05:58:42;0.18;66.49
70867;HTU21D;58487;53.474;49.470;2024-03-17T06:01:08;0.10;64.02
70867;HTU21D;58487;53.474;49.470;2024-03-17T06:03:35;0.06;68.26
70867;HTU21D;58487;53.474;49.470;2024-03-17T06:06:03;0.42;69.78
70867;HTU21D;58487;53.474;49.470;2024-03-17T06:08:29;0.55;64.44
70867;HTU21D;58487;53.474;49.470;2024-03-17T06:11:01;0.37;71.92
70867;HTU21D;58487;53.474;49.470;2024-03-17T06:13:27;0.48;63.80
70867;HTU21D;58487;53.474;49.470;2024-03-17T06:15:57;0.46;64.07
70867;HTU21D;58487;53.474;49.470;2024-03-17T06:18:27;0.44;62.71
70867;HTU21D;58487;53.474;49.470;2024-03-17T06:20:53;0.51;66.11
70867;HTU21D;58487;53.474;49.470;2024-03-17T06:23:19;0.48;71.59
70867;HTU21D;58487;53.474;49.470;2024-03-17T06:25:47;0.65;67.23
70867;HTU21D;58487;53.474;49.470;2024-03-17T06:28:15;0.72;67.63
70867;HTU21D;58487;53.474;49.470;2024-03-17T06:30:53;0.88;66.05
70867;HTU21D;58487;53.474;49.470;2024-03-17T06:33:19;0.92;68.92
70867;HTU21D;58487;53.474;49.470;2024-03-17T06:35:46;1.28;73.86
70867;HTU21D;58487;53.474;49.470;2024-03-17T06:38:13;1.43;67.76
70867;HTU21D;58487;53.474;49.470;2024-03-17T06:40:41;1.20;72.70
70867;HTU21D;58487;53.474;49.470;2024-03-17T06:43:09;0.98;69.13
70867;HTU21D;58487;53.474;49.470;2024-03-17T06:45:36;0.90;70.48
70867;HTU21D;58487;53.474;49.470;2024-03-17T06:48:02;1.18;66.94
70867;HTU21D;58487;53.474;49.470;2024-03-17T06:50:38;1.48;71.11
70867;HTU21D;58487;53.474;49.470;2024-03-17T06:53:13;1.72;65.77
70867;HTU21D;58487;53.474;49.470;2024-03-17T06:55:39;1.70;66.88
70867;HTU21D;58487;53.474;49.470;2024-03-17T06:58:11;1.73;61.11
70867;HTU21D;58487;53.474;49.470;2024-03-17T07:01:00;1.66;64.92
70867;HTU21D;58487;53.474;49.470;2024-03-17T07:03:31;1.81;68.13
70867;HTU21D;58487;53.474;49.470;2024-03-17T07:05:59;2.08;61.61
70867;HTU21D;58487;53.474;49.470;2024-03-17T07:08:29;2.10;62.77
70867;HTU21D;58487;53.474;49.470;2024-03-17T07:11:03;2.05;64.05
70867;HTU21D;58487;53.474;49.470;2024-03-17T07:13:37;1.92;63.82
70867;HTU21D;58487;53.474;49.470;2024-03-17T07:16:13;1.77;62.91
70867;HTU21D;58487;53.474;49.470;2024-03-17T07:18:42;2.01;66.03
70867;HTU21D;58487;53.474;49.470;2024-03-17T07:21:09;2.25;64.69
70867;HTU21D;58487;53.474;49.470;2024-03-17T07:23:36;2.52;64.52
70867;HTU21D;58487;53.474;49.470;2024-03-17T07:26:03;2.74;78.75
70867;HTU21D;58487;53.474;49.470;2024-03-17T07:28:33;2.74;90.25
70867;HTU21D;58487;53.474;49.470;2024-03-17T07:30:59;2.51;78.10
70867;HTU21D;58487;53.474;49.470;2024-03-17T07:33:32;2.86;81.43
70867;HTU21D;58487;53.474;49.470;2024-03-17T07:36:00;3.10;69.72
70867;HTU21D;58487;53.474;49.470;2024-03-17T07:38:29;2.34;79.32
70867;HTU21D;58487;53.474;49.470;2024-03-17T07:43:27;1.58;93.57
70867;HTU21D;58487;53.474;49.470;2024-03-17T07:46:12;2.14;84.53
70867;HTU21D;58487;53.474;49.470;2024-03-17T07:48:40;2.22;84.33
70867;HTU21D;58487;53.474;49.470;2024-03-17T07:51:16;2.06;74.90
70867;HTU21D;58487;53.474;49.470;2024-03-17T07:53:46;2.22;73.45
70867;HTU21D;58487;53.474;49.470;2024-03-17T07:56:16;2.74;76.76
70867;HTU21D;58487;53.474;49.470;2024-03-17T07:58:46;2.96;71.58
70867;HTU21D;58487;53.474;49.470;2024-03-17T08:01:15;3.11;73.76
70867;HTU21D;58487;53.474;49.470;2024-03-17T08:03:45;3.35;73.02
70867;HTU21D;58487;53.474;49.470;2024-03-17T08:06:11;3.58;72.61
70867;HTU21D;58487;53.474;49.470;2024-03-17T08:08:38;2.89;76.34
70867;HTU21D;58487;53.474;49.470;2024-03-17T08:11:04;2.34;72.68
70867;HTU21D;58487;53.474;49.470;2024-03-17T08:13:33;2.56;72.09
70867;HTU21D;58487;53.474;49.470;2024-03-17T08:16:07;2.30;81.84
70867;HTU21D;58487;53.474;49.470;2024-03-17T08:18:37;2.19;65.32
70867;HTU21D;58487;53.474;49.470;2024-03-17T08:21:04;2.07;74.50
70867;HTU21D;58487;53.474;49.470;2024-03-17T08:23:35;2.19;88.72
70867;HTU21D;58487;53.474;49.470;2024-03-17T08:26:07;2.61;82.05
70867;HTU21D;58487;53.474;49.470;2024-03-17T08:28:34;2.85;70.85
70867;HTU21D;58487;53.474;49.470;2024-03-17T08:31:02;3.34;74.05
70867;HTU21D;58487;53.474;49.470;2024-03-17T08:33:29;3.31;77.60
70867;HTU21D;58487;53.474;49.470;2024-03-17T08:36:01;3.14;81.15
70867;HTU21D;58487;53.474;49.470;2024-03-17T08:38:28;3.34;75.46
70867;HTU21D;58487;53.474;49.470;2024-03-17T08:40:55;3.84;74.84
70867;HTU21D;58487;53.474;49.470;2024-03-17T08:43:22;3.83;73.27
70867;HTU21D;58487;53.474;49.470;2024-03-17T08:46:10;3.24;73.51
70867;HTU21D;58487;53.474;49.470;2024-03-17T08:48:40;2.89;71.69
70867;HTU21D;58487;53.474;49.470;2024-03-17T08:51:08;3.39;82.66
70867;HTU21D;58487;53.474;49.470;2024-03-17T08:53:34;2.98;86.50
70867;HTU21D;58487;53.474;49.470;2024-03-17T08:56:03;2.52;73.35
70867;HTU21D;58487;53.474;49.470;2024-03-17T08:58:29;2.59;70.25
70867;HTU21D;58487;53.474;49.470;2024-03-17T09:00:58;2.91;70.55
70867;HTU21D;58487;53.474;49.470;2024-03-17T09:03:28;2.99;70.70
70867;HTU21D;58487;53.474;49.470;2024-03-17T09:05:56;2.94;71.90
70867;HTU21D;58487;53.474;49.470;2024-03-17T09:08:24;3.04;71.35
70867;HTU21D;58487;53.474;49.470;2024-03-17T09:10:53;3.10;68.53
70867;HTU21D;58487;53.474;49.470;2024-03-17T09:13:30;3.00;73.06
70867;HTU21D;58487;53.474;49.470;2024-03-17T09:15:58;3.03;72.32
70867;HTU21D;58487;53.474;49.470;2024-03-17T09:18:37;3.00;67.38
70867;HTU21D;58487;53.474;49.470;2024-03-17T09:21:05;3.13;67.04
70867;HTU21D;58487;53.474;49.470;2024-03-17T09:23:34;3.42;78.00
70867;HTU21D;58487;53.474;49.470;2024-03-17T09:26:05;3.76;80.26
70867;HTU21D;58487;53.474;49.470;2024-03-17T09:28:32;4.00;86.25
70867;HTU21D;58487;53.474;49.470;2024-03-17T09:30:59;4.22;66.98
70867;HTU21D;58487;53.474;49.470;2024-03-17T09:33:38;4.34;72.96
70867;HTU21D;58487;53.474;49.470;2024-03-17T09:36:10;4.56;69.29
70867;HTU21D;58487;53.474;49.470;2024-03-17T09:38:54;5.26;72.00
70867;HTU21D;58487;53.474;49.470;2024-03-17T09:41:48;5.45;74.75
70867;HTU21D;58487;53.474;49.470;2024-03-17T09:44:22;5.47;85.23
70867;HTU21D;58487;53.474;49.470;2024-03-17T09:46:49;5.84;64.70
70867;HTU21D;58487;53.474;49.470;2024-03-17T09:49:15;6.33;70.25
70867;HTU21D;58487;53.474;49.470;2024-03-17T09:51:44;7.18;65.62
70867;HTU21D;58487;53.474;49.470;2024-03-17T09:54:18;7.40;62.01
70867;HTU21D;58487;53.474;49.470;2024-03-17T09:56:45;7.65;72.40
70867;HTU21D;58487;53.474;49.470;2024-03-17T09:59:15;8.24;64.81
70867;HTU21D;58487;53.474;49.470;2024-03-17T10:01:41;8.86;63.76
70867;HTU21D;58487;53.474;49.470;2024-03-17T10:04:08;8.82;59.22
70867;HTU21D;58487;53.474;49.470;2024-03-17T10:06:45;8.47;70.68
70867;HTU21D;58487;53.474;49.470;2024-03-17T10:09:17;9.26;65.50
70867;HTU21D;58487;53.474;49.470;2024-03-17T10:11:47;9.83;67.59
70867;HTU21D;58487;53.474;49.470;2024-03-17T10:14:16;10.40;59.90
70867;HTU21D;58487;53.474;49.470;2024-03-17T10:16:43;8.53;70.91
70867;HTU21D;58487;53.474;49.470;2024-03-17T10:22:25;7.12;68.46
70867;HTU21D;58487;53.474;49.470;2024-03-17T10:24:59;6.88;64.61
70867;HTU21D;58487;53.474;49.470;2024-03-17T10:27:25;6.82;68.47
70867;HTU21D;58487;53.474;49.470;2024-03-17T10:29:51;6.43;72.21
70867;HTU21D;58487;53.474;49.470;2024-03-17T10:32:19;6.80;66.20
70867;HTU21D;58487;53.474;49.470;2024-03-17T10:34:48;6.64;67.71
70867;HTU21D;58487;53.474;49.470;2024-03-17T10:37:16;6.13;70.26
70867;HTU21D;58487;53.474;49.470;2024-03-17T10:39:52;6.71;69.07
70867;HTU21D;58487;53.474;49.470;2024-03-17T10:42:26;6.64;73.32
70867;HTU21D;58487;53.474;49.470;2024-03-17T10:45:01;6.33;68.62
70867;HTU21D;58487;53.474;49.470;2024-03-17T10:47:34;6.35;62.57
70867;HTU21D;58487;53.474;49.470;2024-03-17T10:50:01;7.74;68.71
70867;HTU21D;58487;53.474;49.470;2024-03-17T10:52:33;8.02;78.69
70867;HTU21D;58487;53.474;49.470;2024-03-17T10:55:19;8.01;80.20
70867;HTU21D;58487;53.474;49.470;2024-03-17T10:57:46;8.72;71.42
70867;HTU21D;58487;53.474;49.470;2024-03-17T11:00:17;7.73;78.07
70867;HTU21D;58487;53.474;49.470;2024-03-17T11:03:10;7.98;75.27
70867;HTU21D;58487;53.474;49.470;2024-03-17T11:09:53;7.62;72.83
70867;HTU21D;58487;53.474;49.470;2024-03-17T11:12:43;7.02;90.07
70867;HTU21D;58487;53.474;49.470;2024-03-17T11:17:53;6.90;71.01
70867;HTU21D;58487;53.474;49.470;2024-03-17T11:23:30;7.58;71.55
70867;HTU21D;58487;53.474;49.470;2024-03-17T11:25:57;7.14;76.14
70867;HTU21D;58487;53.474;49.470;2024-03-17T11:28:45;7.62;70.82
70867;HTU21D;58487;53.474;49.470;2024-03-17T11:31:43;7.42;83.18
70867;HTU21D;58487;53.474;49.470;2024-03-17T11:34:30;7.46;75.10
70867;HTU21D;58487;53.474;49.470;2024-03-17T11:37:40;7.03;73.95
70867;HTU21D;58487;53.474;49.470;2024-03-17T11:43:32;6.59;69.71
70867;HTU21D;58487;53.474;49.470;2024-03-17T11:46:10;6.79;70.29
70867;HTU21D;58487;53.474;49.470;2024-03-17T11:48:37;6.15;80.59
70867;HTU21D;58487;53.474;49.470;2024-03-17T11:51:06;6.57;65.33
70867;HTU21D;58487;53.474;49.470;2024-03-17T11:53:32;6.45;71.42
70867;HTU21D;58487;53.474;49.470;2024-03-17T11:56:14;6.73;75.65
70867;HTU21D;58487;53.474;49.470;2024-03-17T12:03:55;5.53;74.83
70867;HTU21D;58487;53.474;49.470;2024-03-17T12:06:27;6.11;68.87
70867;HTU21D;58487;53.474;49.470;2024-03-17T12:13:12;5.53;75.88
70867;HTU21D;58487;53.474;49.470;2024-03-17T12:23:13;5.38;68.18
70867;HTU21D;58487;53.474;49.470;2024-03-17T12:25:47;5.33;68.37
70867;HTU21D;58487;53.474;49.470;2024-03-17T12:28:22;5.66;68.59
70867;HTU21D;58487;53.474;49.470;2024-03-17T12:31:31;5.42;63.75
70867;HTU21D;58487;53.474;49.470;2024-03-17T12:34:15;4.90;81.14
70867;HTU21D;58487;53.474;49.470;2024-03-17T12:36:42;4.27;87.68
70867;HTU21D;58487;53.474;49.470;2024-03-17T12:39:28;4.15;74.99
70867;HTU21D;58487;53.474;49.470;2024-03-17T12:42:09;3.83;82.85
70867;HTU21D;58487;53.474;49.470;2024-03-17T12:44:38;3.70;85.87
70867;HTU21D;58487;53.474;49.470;2024-03-17T12:47:16;3.63;78.58
70867;HTU21D;58487;53.474;49.470;2024-03-17T12:49:50;3.73;71.09
70867;HTU21D;58487;53.474;49.470;2024-03-17T12:52:27;3.89;73.61
70867;HTU21D;58487;53.474;49.470;2024-03-17T12:55:00;4.02;71.20
70867;HTU21D;58487;53.474;49.470;2024-03-17T12:57:47;4.19;71.74
70867;HTU21D;58487;53.474;49.470;2024-03-17T13:00:35;4.49;76.33
70867;HTU21D;58487;53.474;49.470;2024-03-17T13:05:30;3.85;79.35
70867;HTU21D;58487;53.474;49.470;2024-03-17T13:07:58;2.72;78.82
70867;HTU21D;58487;53.474;49.470;2024-03-17T13:10:25;2.64;89.21
70867;HTU21D;58487;53.474;49.470;2024-03-17T13:13:03;3.03;80.46
70867;HTU21D;58487;53.474;49.470;2024-03-17T13:15:32;3.57;85.84
70867;HTU21D;58487;53.474;49.470;2024-03-17T13:17:59;3.46;86.02
70867;HTU21D;58487;53.474;49.470;2024-03-17T13:20:26;2.84;75.90
70867;HTU21D;58487;53.474;49.470;2024-03-17T13:22:53;2.52;75.01
70867;HTU21D;58487;53.474;49.470;2024-03-17T13:25:23;2.38;72.11
70867;HTU21D;58487;53.474;49.470;2024-03-17T13:27:55;2.40;75.15
70867;HTU21D;58487;53.474;49.470;2024-03-17T13:30:48;2.41;73.12
70867;HTU21D;58487;53.474;49.470;2024-03-17T13:33:39;2.34;76.96
70867;HTU21D;58487;53.474;49.470;2024-03-17T13:36:05;2.55;80.72
70867;HTU21D;58487;53.474;49.470;2024-03-17T13:38:32;2.89;69.43
70867;HTU21D;58487;53.474;49.470;2024-03-17T13:40:58;2.96;69.21
70867;HTU21D;58487;53.474;49.470;2024-03-17T13:43:25;3.06;69.26
70867;HTU21D;58487;53.474;49.470;2024-03-17T13:45:51;2.73;72.18
70867;HTU21D;58487;53.474;49.470;2024-03-17T13:48:18;2.62;71.66
70867;HTU21D;58487;53.474;49.470;2024-03-17T13:50:48;2.51;71.78
70867;HTU21D;58487;53.474;49.470;2024-03-17T13:53:16;2.44;69.74
70867;HTU21D;58487;53.474;49.470;2024-03-17T13:55:42;2.51;69.27
70867;HTU21D;58487;53.474;49.470;2024-03-17T13:58:08;2.59;74.77
70867;HTU21D;58487;53.474;49.470;2024-03-17T14:00:35;2.64;71.31
70867;HTU21D;58487;53.474;49.470;2024-03-17T14:03:05;2.78;69.43
70867;HTU21D;58487;53.474;49.470;2024-03-17T14:05:32;2.89;70.06
70867;HTU21D;58487;53.474;49.470;2024-03-17T14:08:03;2.86;72.21
70867;HTU21D;58487;53.474;49.470;2024-03-17T14:10:32;2.99;69.86
70867;HTU21D;58487;53.474;49.470;2024-03-17T14:13:01;3.00;72.48
70867;HTU21D;58487;53.474;49.470;2024-03-17T14:15:29;2.69;73.17
70867;HTU21D;58487;53.474;49.470;2024-03-17T14:18:21;2.51;72.74
70867;HTU21D;58487;53.474;49.470;2024-03-17T14:20:50;2.69;68.84
70867;HTU21D;58487;53.474;49.470;2024-03-17T14:23:18;2.54;69.62
70867;HTU21D;58487;53.474;49.470;2024-03-17T14:28:41;2.52;67.75
70867;HTU21D;58487;53.474;49.470;2024-03-17T14:31:12;2.72;64.32
70867;HTU21D;58487;53.474;49.470;2024-03-17T14:37:48;2.49;70.48
70867;HTU21D;58487;53.474;49.470;2024-03-17T14:40:16;2.45;72.08
70867;HTU21D;58487;53.474;49.470;2024-03-17T14:43:00;2.32;69.64
70867;HTU21D;58487;53.474;49.470;2024-03-17T14:45:28;2.38;71.07
70867;HTU21D;58487;53.474;49.470;2024-03-17T14:47:58;2.36;71.35
70867;HTU21D;58487;53.474;49.470;2024-03-17T14:50:24;2.19;70.61
70867;HTU21D;58487;53.474;49.470;2024-03-17T14:52:50;2.02;65.41
70867;HTU21D;58487;53.474;49.470;2024-03-17T14:55:16;1.93;68.39
70867;HTU21D;58487;53.474;49.470;2024-03-17T14:57:43;1.84;72.00
70867;HTU21D;58487;53.474;49.470;2024-03-17T15:00:15;1.88;72.46
70867;HTU21D;58487;53.474;49.470;2024-03-17T15:02:50;1.87;67.03
70867;HTU21D;58487;53.474;49.470;2024-03-17T15:05:17;1.78;69.20
70867;HTU21D;58487;53.474;49.470;2024-03-17T15:07:53;1.97;71.44
70867;HTU21D;58487;53.474;49.470;2024-03-17T15:10:20;1.88;72.58
70867;HTU21D;58487;53.474;49.470;2024-03-17T15:12:49;1.90;67.06
70867;HTU21D;58487;53.474;49.470;2024-03-17T15:15:16;1.86;68.06
70867;HTU21D;58487;53.474;49.470;2024-03-17T15:17:43;1.87;69.30
70867;HTU21D;58487;53.474;49.470;2024-03-17T15:20:12;1.93;62.79
70867;HTU21D;58487;53.474;49.470;2024-03-17T15:22:46;1.94;73.06
70867;HTU21D;58487;53.474;49.470;2024-03-17T15:25:16;1.83;72.24
70867;HTU21D;58487;53.474;49.470;2024-03-17T15:27:46;1.87;69.33
70867;HTU21D;58487;53.474;49.470;2024-03-17T15:30:14;1.90;74.99
70867;HTU21D;58487;53.474;49.470;2024-03-17T15:32:41;2.00;81.78
70867;HTU21D;58487;53.474;49.470;2024-03-17T15:35:10;1.84;83.80
70867;HTU21D;58487;53.474;49.470;2024-03-17T15:37:40;1.94;65.28
70867;HTU21D;58487;53.474;49.470;2024-03-17T15:40:08;1.98;67.74
70867;HTU21D;58487;53.474;49.470;2024-03-17T15:42:46;2.02;74.58
70867;HTU21D;58487;53.474;49.470;2024-03-17T15:45:22;1.81;86.40
70867;HTU21D;58487;53.474;49.470;2024-03-17T15:47:52;1.63;80.64
70867;HTU21D;58487;53.474;49.470;2024-03-17T15:50:20;1.58;71.66
70867;HTU21D;58487;53.474;49.470;2024-03-17T15:52:46;1.39;64.05
70867;HTU21D;58487;53.474;49.470;2024-03-17T15:55:18;1.40;70.68
70867;HTU21D;58487;53.474;49.470;2024-03-17T15:57:47;1.10;76.68
70867;HTU21D;58487;53.474;49.470;2024-03-17T16:00:13;1.02;66.43
70867;HTU21D;58487;53.474;49.470;2024-03-17T16:02:40;1.19;67.46
70867;HTU21D;58487;53.474;49.470;2024-03-17T16:05:07;1.20;88.65
70867;HTU21D;58487;53.474;49.470;2024-03-17T16:07:38;1.05;108.83
70867;HTU21D;58487;53.474;49.470;2024-03-17T16:10:05;1.07;86.96
70867;HTU21D;58487;53.474;49.470;2024-03-17T16:12:44;0.94;91.99
70867;HTU21D;58487;53.474;49.470;2024-03-17T16:15:12;1.11;115.30
70867;HTU21D;58487;53.474;49.470;2024-03-17T16:17:39;1.01;79.76